createdAt,value
2023-04-23T00:01:12.544Z,6.70
2023-04-23T00:02:47.078Z,6.65
2023-04-23T00:04:23.695Z,6.65
2023-04-23T00:05:59.411Z,6.65
2023-04-23T00:07:34.232Z,6.63
2023-04-23T00:09:07.726Z,6.60
2023-04-23T00:10:40.197Z,6.59
2023-04-23T00:12:15.539Z,6.58
2023-04-23T00:13:49.708Z,6.58
2023-04-23T00:15:23.203Z,6.56
2023-04-23T00:16:56.837Z,6.57
2023-04-23T00:18:30.353Z,6.55
2023-04-23T00:20:03.876Z,6.53
2023-04-23T00:21:37.020Z,6.54
2023-04-23T00:23:10.317Z,6.51
2023-04-23T00:24:43.574Z,6.56
2023-04-23T00:26:18.657Z,6.56
2023-04-23T00:27:53.126Z,6.57
2023-04-23T00:29:26.312Z,6.54
2023-04-23T00:30:59.479Z,6.50
2023-04-23T00:32:33.274Z,6.45
2023-04-23T00:34:07.050Z,6.43
2023-04-23T00:35:40.292Z,6.43
2023-04-23T00:37:13.367Z,6.43
2023-04-23T00:38:46.931Z,6.37
2023-04-23T00:40:20.562Z,6.28
2023-04-23T00:41:53.665Z,6.22
2023-04-23T00:43:28.663Z,6.20
2023-04-23T00:45:02.905Z,6.15
2023-04-23T00:46:36.817Z,6.10
2023-04-23T00:48:10.507Z,6.02
2023-04-23T00:49:44.318Z,6.03
2023-04-23T00:51:17.914Z,6.02
2023-04-23T00:52:51.087Z,6.05
2023-04-23T00:54:23.331Z,6.07
2023-04-23T00:55:56.633Z,6.05
2023-04-23T00:57:30.691Z,6.06
2023-04-23T00:59:05.391Z,5.98
2023-04-23T01:00:46.356Z,5.84
2023-04-23T01:02:20.540Z,5.81
2023-04-23T01:03:54.182Z,5.77
2023-04-23T01:05:27.634Z,5.72
2023-04-23T01:07:01.753Z,5.70
2023-04-23T01:08:36.060Z,5.68
2023-04-23T01:10:11.331Z,5.70
2023-04-23T01:11:44.320Z,5.64
2023-04-23T01:13:17.960Z,5.69
2023-04-23T01:14:53.308Z,5.63
2023-04-23T01:16:26.795Z,5.57
2023-04-23T01:18:00.256Z,5.55
2023-04-23T01:19:33.662Z,5.52
2023-04-23T01:21:07.302Z,5.55
2023-04-23T01:22:42.336Z,5.54
2023-04-23T01:24:14.594Z,5.61
2023-04-23T01:25:47.920Z,5.57
2023-04-23T01:27:20.409Z,5.54
2023-04-23T01:28:54.243Z,5.52
2023-04-23T01:30:28.504Z,5.54
2023-04-23T01:32:01.842Z,5.52
2023-04-23T01:33:36.013Z,5.57
2023-04-23T01:35:10.143Z,5.57
2023-04-23T01:36:44.801Z,5.59
2023-04-23T01:38:20.957Z,5.60
2023-04-23T01:39:54.368Z,5.60
2023-04-23T01:41:28.497Z,5.62
2023-04-23T01:43:01.856Z,5.61
2023-04-23T01:44:35.230Z,5.58
2023-04-23T01:46:07.502Z,5.58
2023-04-23T01:47:42.194Z,5.55
2023-04-23T01:49:15.535Z,5.55
2023-04-23T01:50:49.345Z,5.56
2023-04-23T01:52:22.692Z,5.55
2023-04-23T01:53:57.762Z,5.49
2023-04-23T01:55:30.365Z,5.45
2023-04-23T01:57:03.973Z,5.45
2023-04-23T01:58:36.379Z,5.36
2023-04-23T02:00:11.959Z,5.36
2023-04-23T02:01:45.611Z,5.35
2023-04-23T02:03:19.055Z,5.32
2023-04-23T02:04:53.467Z,5.28
2023-04-23T02:06:26.985Z,5.27
2023-04-23T02:08:00.379Z,5.28
2023-04-23T02:09:34.886Z,5.27
2023-04-23T02:11:08.052Z,5.27
2023-04-23T02:12:41.057Z,5.23
2023-04-23T02:14:15.832Z,5.20
2023-04-23T02:15:47.969Z,5.13
2023-04-23T02:17:23.115Z,5.07
2023-04-23T02:18:55.730Z,5.04
2023-04-23T02:20:29.041Z,4.94
2023-04-23T02:22:02.836Z,4.87
2023-04-23T02:23:35.993Z,4.78
2023-04-23T02:25:11.673Z,4.70
2023-04-23T02:26:44.768Z,4.65
2023-04-23T02:28:18.015Z,4.69
2023-04-23T02:29:50.237Z,4.69
2023-04-23T02:31:23.712Z,4.73
2023-04-23T02:32:55.907Z,4.79
2023-04-23T02:34:29.137Z,4.75
2023-04-23T02:36:02.387Z,4.78
2023-04-23T02:37:37.186Z,4.80
2023-04-23T02:39:09.507Z,4.82
2023-04-23T02:40:44.389Z,4.87
2023-04-23T02:42:17.484Z,4.94
2023-04-23T02:43:50.790Z,4.98
2023-04-23T02:45:23.965Z,5.00
2023-04-23T02:46:57.455Z,5.02
2023-04-23T02:48:29.913Z,5.07
2023-04-23T02:50:06.137Z,5.10
2023-04-23T02:51:39.390Z,5.10
2023-04-23T02:53:12.495Z,5.18
2023-04-23T02:54:46.131Z,5.19
2023-04-23T02:56:21.154Z,5.20
2023-04-23T02:57:54.374Z,5.19
2023-04-23T02:59:27.075Z,5.24
2023-04-23T03:01:00.924Z,5.22
2023-04-23T03:02:33.698Z,5.25
2023-04-23T03:04:07.654Z,5.15
2023-04-23T03:05:41.003Z,5.13
2023-04-23T03:07:17.448Z,5.15
2023-04-23T03:08:51.047Z,5.16
2023-04-23T03:10:24.202Z,5.15
2023-04-23T03:11:58.797Z,5.15
2023-04-23T03:13:31.087Z,5.15
2023-04-23T03:15:04.673Z,5.20
2023-04-23T03:16:39.976Z,5.23
2023-04-23T03:18:12.473Z,5.24
2023-04-23T03:19:46.034Z,5.25
2023-04-23T03:21:19.129Z,5.28
2023-04-23T03:22:52.391Z,5.27
2023-04-23T03:24:26.150Z,5.26
2023-04-23T03:25:59.325Z,5.29
2023-04-23T03:27:33.241Z,5.32
2023-04-23T03:29:07.468Z,5.34
2023-04-23T03:30:41.261Z,5.40
2023-04-23T03:32:14.882Z,5.41
2023-04-23T03:33:48.751Z,5.43
2023-04-23T03:35:28.159Z,5.40
2023-04-23T03:37:03.734Z,5.37
2023-04-23T03:38:42.646Z,5.33
2023-04-23T03:40:16.382Z,5.23
2023-04-23T03:41:52.274Z,5.23
2023-04-23T03:43:30.631Z,5.21
2023-04-23T03:45:09.611Z,5.26
2023-04-23T03:46:43.028Z,5.29
2023-04-23T03:48:17.127Z,5.33
2023-04-23T03:49:50.999Z,5.36
2023-04-23T03:51:24.354Z,5.36
2023-04-23T03:52:57.601Z,5.35
2023-04-23T03:54:51.073Z,5.37
2023-04-23T03:56:27.058Z,5.40
2023-04-23T03:58:17.649Z,5.41
2023-04-23T03:59:53.686Z,5.42
2023-04-23T04:01:26.971Z,5.41
2023-04-23T04:03:00.849Z,5.46
2023-04-23T04:04:35.560Z,5.47
2023-04-23T04:06:09.383Z,5.57
2023-04-23T04:07:42.513Z,5.64
2023-04-23T04:09:15.853Z,5.71
2023-04-23T04:10:49.295Z,5.76
2023-04-23T04:12:22.611Z,5.84
2023-04-23T04:13:54.881Z,5.87
2023-04-23T04:15:29.418Z,5.92
2023-04-23T04:17:01.587Z,5.97
2023-04-23T04:18:34.880Z,5.95
2023-04-23T04:20:09.588Z,5.88
2023-04-23T04:21:42.818Z,5.89
2023-04-23T04:23:16.185Z,5.91
2023-04-23T04:24:48.349Z,5.97
2023-04-23T04:26:21.531Z,6.05
2023-04-23T04:27:54.726Z,6.13
2023-04-23T04:29:28.533Z,6.27
2023-04-23T04:31:03.397Z,6.39
2023-04-23T04:32:38.866Z,6.48
2023-04-23T04:34:14.682Z,6.50
2023-04-23T04:35:49.241Z,6.63
2023-04-23T04:37:21.865Z,6.77
2023-04-23T04:38:56.140Z,6.93
2023-04-23T04:40:30.503Z,7.00
2023-04-23T04:42:04.221Z,7.09
2023-04-23T04:43:37.741Z,7.30
2023-04-23T04:45:11.722Z,7.48
2023-04-23T04:46:46.324Z,7.59
2023-04-23T04:48:19.769Z,7.55
2023-04-23T04:49:52.055Z,7.46
2023-04-23T04:51:25.203Z,7.44
2023-04-23T04:52:58.360Z,7.45
2023-04-23T04:54:31.619Z,7.41
2023-04-23T04:56:05.057Z,7.37
2023-04-23T04:57:38.169Z,7.30
2023-04-23T04:59:11.471Z,7.24
2023-04-23T05:00:44.897Z,7.16
2023-04-23T05:02:18.799Z,7.11
2023-04-23T05:03:52.193Z,7.15
2023-04-23T05:05:26.834Z,7.17
2023-04-23T05:07:00.127Z,7.28
2023-04-23T05:08:33.322Z,7.38
2023-04-23T05:10:07.350Z,7.56
2023-04-23T05:11:41.275Z,7.61
2023-04-23T05:13:14.639Z,7.60
2023-04-23T05:14:47.808Z,7.49
2023-04-23T05:16:21.335Z,7.54
2023-04-23T05:17:55.938Z,7.51
2023-04-23T05:19:29.348Z,7.56
2023-04-23T05:21:02.638Z,7.55
2023-04-23T05:22:35.964Z,7.68
2023-04-23T05:24:09.242Z,7.77
2023-04-23T05:25:42.623Z,7.81
2023-04-23T05:27:15.924Z,7.90
2023-04-23T05:28:49.074Z,8.02
2023-04-23T05:30:22.378Z,8.02
2023-04-23T05:31:55.685Z,8.13
2023-04-23T05:33:39.130Z,8.40
2023-04-23T05:35:16.512Z,8.58
2023-04-23T05:36:49.642Z,8.81
2023-04-23T05:38:22.962Z,8.99
2023-04-23T05:39:56.965Z,9.18
2023-04-23T05:41:30.343Z,9.39
2023-04-23T05:43:02.717Z,9.55
2023-04-23T05:44:35.984Z,9.61
2023-04-23T05:46:09.292Z,9.92
2023-04-23T05:47:42.514Z,10.19
2023-04-23T05:49:17.077Z,10.35
2023-04-23T05:50:50.559Z,10.54
2023-04-23T05:52:23.146Z,10.80
2023-04-23T05:53:56.400Z,11.15
2023-04-23T05:55:30.003Z,11.55
2023-04-23T05:57:04.054Z,12.02
2023-04-23T05:58:38.970Z,12.51
2023-04-23T06:00:13.119Z,12.83
2023-04-23T06:01:46.451Z,13.17
2023-04-23T06:03:20.134Z,13.20
2023-04-23T06:04:55.320Z,13.27
2023-04-23T06:06:28.803Z,13.33
2023-04-23T06:08:01.935Z,13.50
2023-04-23T06:09:35.232Z,13.53
2023-04-23T06:11:08.927Z,13.64
2023-04-23T06:12:42.374Z,13.86
2023-04-23T06:14:15.711Z,14.24
2023-04-23T06:15:49.022Z,14.64
2023-04-23T06:17:23.096Z,15.05
2023-04-23T06:18:56.336Z,15.41
2023-04-23T06:20:31.668Z,15.78
2023-04-23T06:22:04.070Z,15.94
2023-04-23T06:23:37.511Z,16.04
2023-04-23T06:25:11.254Z,15.84
2023-04-23T06:26:44.356Z,15.95
2023-04-23T06:28:22.248Z,16.23
2023-04-23T06:30:18.176Z,16.10
2023-04-23T06:31:51.790Z,16.04
2023-04-23T06:33:25.176Z,16.05
2023-04-23T06:35:01.896Z,16.11
2023-04-23T06:36:37.071Z,15.84
2023-04-23T06:38:10.301Z,16.19
2023-04-23T06:39:43.548Z,16.62
2023-04-23T06:41:16.923Z,17.18
2023-04-23T06:42:50.317Z,17.43
2023-04-23T06:44:40.965Z,17.72
2023-04-23T06:46:14.311Z,17.97
2023-04-23T06:47:49.301Z,17.65
2023-04-23T06:49:23.238Z,17.61
2023-04-23T06:50:56.362Z,17.68
2023-04-23T06:52:30.976Z,17.88
2023-04-23T06:54:04.202Z,17.92
2023-04-23T06:55:37.595Z,17.93
2023-04-23T06:57:11.207Z,18.24
2023-04-23T06:58:44.416Z,18.29
2023-04-23T07:00:24.086Z,18.54
2023-04-23T07:01:57.755Z,18.65
2023-04-23T07:03:31.400Z,18.49
2023-04-23T07:05:05.261Z,18.56
2023-04-23T07:06:38.407Z,18.52
2023-04-23T07:08:13.643Z,18.81
2023-04-23T07:09:48.418Z,19.06
2023-04-23T07:11:22.022Z,19.39
2023-04-23T07:12:55.215Z,19.69
2023-04-23T07:14:28.517Z,19.82
2023-04-23T07:16:01.777Z,19.84
2023-04-23T07:17:35.056Z,19.76
2023-04-23T07:19:08.229Z,19.97
2023-04-23T07:20:42.037Z,20.22
2023-04-23T07:22:15.195Z,20.33
2023-04-23T07:23:50.216Z,19.68
2023-04-23T07:25:24.824Z,19.62
2023-04-23T07:26:59.283Z,19.60
2023-04-23T07:28:32.990Z,19.61
2023-04-23T07:30:08.272Z,19.89
2023-04-23T07:31:42.640Z,20.10
2023-04-23T07:33:16.296Z,20.41
2023-04-23T07:34:49.516Z,20.46
2023-04-23T07:36:23.223Z,20.55
2023-04-23T07:37:58.037Z,20.54
2023-04-23T07:39:33.577Z,20.98
2023-04-23T07:41:07.119Z,21.30
2023-04-23T07:42:41.188Z,21.54
2023-04-23T07:44:14.909Z,21.55
2023-04-23T07:45:48.492Z,21.48
2023-04-23T07:47:22.121Z,21.54
2023-04-23T07:48:54.482Z,21.46
2023-04-23T07:50:28.259Z,21.33
2023-04-23T07:52:02.046Z,21.56
2023-04-23T07:53:36.557Z,21.74
2023-04-23T07:55:11.890Z,21.82
2023-04-23T07:56:46.686Z,22.02
2023-04-23T07:58:19.124Z,22.22
2023-04-23T07:59:52.557Z,22.47
2023-04-23T08:01:26.722Z,22.26
2023-04-23T08:03:00.678Z,22.48
2023-04-23T08:04:34.581Z,22.18
2023-04-23T08:06:08.345Z,22.24
2023-04-23T08:07:41.737Z,22.01
2023-04-23T08:09:15.057Z,22.14
2023-04-23T08:10:49.692Z,22.41
2023-04-23T08:12:23.065Z,22.07
2023-04-23T08:13:56.437Z,22.21
2023-04-23T08:15:29.590Z,22.50
2023-04-23T08:17:01.858Z,22.48
2023-04-23T08:18:35.295Z,22.83
2023-04-23T08:20:09.781Z,22.71
2023-04-23T08:21:42.924Z,23.05
2023-04-23T08:23:16.379Z,23.15
2023-04-23T08:24:49.603Z,23.13
2023-04-23T08:26:24.754Z,23.06
2023-04-23T08:27:57.924Z,23.17
2023-04-23T08:29:31.183Z,23.27
2023-04-23T08:31:15.111Z,22.97
2023-04-23T08:32:56.596Z,23.21
2023-04-23T08:34:29.688Z,23.57
2023-04-23T08:36:03.113Z,23.79
2023-04-23T08:37:36.295Z,24.03
2023-04-23T08:39:09.806Z,24.25
2023-04-23T08:40:43.802Z,24.26
2023-04-23T08:42:26.195Z,24.70
2023-04-23T08:44:08.965Z,24.91
2023-04-23T08:45:42.868Z,24.79
2023-04-23T08:47:19.263Z,24.95
2023-04-23T08:48:54.777Z,25.01
2023-04-23T08:50:31.087Z,24.84
2023-04-23T08:52:18.461Z,23.92
2023-04-23T08:53:57.278Z,23.70
2023-04-23T08:55:30.762Z,22.90
2023-04-23T08:57:06.230Z,22.92
2023-04-23T08:58:41.847Z,23.44
2023-04-23T09:00:17.136Z,23.86
2023-04-23T09:01:51.257Z,24.20
2023-04-23T09:03:25.320Z,24.81
2023-04-23T09:04:58.897Z,25.05
2023-04-23T09:06:33.278Z,25.08
2023-04-23T09:08:07.081Z,24.61
2023-04-23T09:09:41.513Z,24.49
2023-04-23T09:11:16.801Z,24.67
2023-04-23T09:12:50.805Z,24.98
2023-04-23T09:14:26.798Z,25.07
2023-04-23T09:16:00.070Z,25.19
2023-04-23T09:17:36.537Z,25.50
2023-04-23T09:19:12.205Z,25.76
2023-04-23T09:20:45.858Z,25.85
2023-04-23T09:22:42.330Z,26.09
2023-04-23T09:24:18.029Z,26.24
2023-04-23T09:25:51.272Z,26.05
2023-04-23T09:27:26.422Z,25.99
2023-04-23T09:28:59.664Z,25.89
2023-04-23T09:30:33.136Z,25.77
2023-04-23T09:32:09.499Z,25.70
2023-04-23T09:33:42.934Z,25.67
2023-04-23T09:35:17.776Z,25.83
2023-04-23T09:36:52.641Z,25.83
2023-04-23T09:38:27.428Z,25.77
2023-04-23T09:40:01.063Z,25.93
2023-04-23T09:41:34.308Z,26.04
2023-04-23T09:43:11.437Z,26.07
2023-04-23T09:44:44.598Z,25.94
2023-04-23T09:46:17.835Z,25.84
2023-04-23T09:47:52.943Z,25.42
2023-04-23T09:49:26.301Z,25.25
2023-04-23T09:51:03.230Z,25.14
2023-04-23T09:52:41.083Z,24.70
2023-04-23T09:54:18.942Z,24.51
2023-04-23T09:55:54.340Z,24.43
2023-04-23T09:57:27.604Z,24.32
2023-04-23T09:59:01.148Z,24.03
2023-04-23T10:00:36.724Z,23.80
2023-04-23T10:02:10.893Z,23.70
2023-04-23T10:03:45.017Z,23.53
2023-04-23T10:05:23.504Z,23.38
2023-04-23T10:07:13.700Z,23.37
2023-04-23T10:08:51.339Z,23.32
2023-04-23T10:10:26.783Z,23.30
2023-04-23T10:12:02.409Z,23.32
2023-04-23T10:13:36.958Z,23.05
2023-04-23T10:15:11.584Z,22.93
2023-04-23T10:16:49.319Z,22.90
2023-04-23T10:18:24.796Z,22.76
2023-04-23T10:20:01.628Z,22.76
2023-04-23T10:21:50.029Z,22.49
2023-04-23T10:23:26.493Z,22.15
2023-04-23T10:25:02.140Z,22.33
2023-04-23T10:26:39.945Z,22.68
2023-04-23T10:28:15.413Z,23.07
2023-04-23T10:29:50.079Z,23.24
2023-04-23T10:31:23.857Z,23.26
2023-04-23T10:32:59.608Z,23.40
2023-04-23T10:34:33.916Z,23.59
2023-04-23T10:36:08.678Z,23.48
2023-04-23T10:37:42.994Z,23.31
2023-04-23T10:39:24.010Z,23.19
2023-04-23T10:41:03.156Z,22.98
2023-04-23T10:42:38.433Z,22.77
2023-04-23T10:44:15.871Z,22.48
2023-04-23T10:45:51.116Z,22.50
2023-04-23T10:47:24.383Z,22.59
2023-04-23T10:49:15.556Z,22.78
2023-04-23T10:51:08.175Z,22.95
2023-04-23T10:52:46.855Z,23.08
2023-04-23T10:54:21.364Z,23.22
2023-04-23T10:56:07.282Z,23.21
2023-04-23T10:57:59.226Z,23.05
2023-04-23T10:59:35.113Z,22.84
2023-04-23T11:01:08.237Z,22.25
2023-04-23T11:02:45.502Z,22.08
2023-04-23T11:04:24.034Z,21.95
2023-04-23T11:05:57.603Z,21.83
2023-04-23T11:07:33.286Z,21.90
2023-04-23T11:09:49.077Z,22.14
2023-04-23T11:11:39.871Z,22.38
2023-04-23T11:13:25.149Z,22.64
2023-04-23T11:15:00.295Z,22.95
2023-04-23T11:16:35.151Z,22.84
2023-04-23T11:18:08.884Z,22.88
2023-04-23T11:19:44.023Z,23.02
2023-04-23T11:21:17.526Z,23.18
2023-04-23T11:22:52.090Z,23.19
2023-04-23T11:24:24.591Z,23.13
2023-04-23T11:25:59.253Z,23.07
2023-04-23T11:27:32.663Z,23.14
2023-04-23T11:29:08.675Z,23.17
2023-04-23T11:30:42.054Z,23.23
2023-04-23T11:32:18.169Z,23.16
2023-04-23T11:33:51.499Z,23.08
2023-04-23T11:35:28.488Z,23.07
2023-04-23T11:37:02.461Z,23.01
2023-04-23T11:38:35.780Z,22.94
2023-04-23T11:40:11.203Z,22.79
2023-04-23T11:41:46.817Z,22.99
2023-04-23T11:43:22.184Z,23.30
2023-04-23T11:44:56.710Z,23.29
2023-04-23T11:46:30.145Z,23.25
2023-04-23T11:48:03.427Z,23.00
2023-04-23T11:49:38.306Z,22.85
2023-04-23T11:51:11.414Z,22.73
2023-04-23T11:52:44.970Z,22.72
2023-04-23T11:54:18.402Z,22.66
2023-04-23T11:55:51.783Z,22.55
2023-04-23T11:57:24.952Z,22.44
2023-04-23T11:59:00.414Z,22.55
2023-04-23T12:00:34.897Z,22.76
2023-04-23T12:02:08.360Z,22.86
2023-04-23T12:03:41.668Z,23.04
2023-04-23T12:05:15.027Z,23.24
2023-04-23T12:06:49.635Z,23.55
2023-04-23T12:08:23.383Z,23.69
2023-04-23T12:10:00.617Z,23.80
2023-04-23T12:11:36.121Z,23.89
2023-04-23T12:13:14.466Z,23.70
2023-04-23T12:14:47.647Z,23.73
2023-04-23T12:16:35.190Z,23.87
2023-04-23T12:18:11.967Z,23.93
2023-04-23T12:19:45.959Z,23.87
2023-04-23T12:21:19.264Z,23.42
2023-04-23T12:22:52.591Z,23.49
2023-04-23T12:24:26.925Z,23.44
2023-04-23T12:26:00.078Z,23.56
2023-04-23T12:27:33.987Z,23.68
2023-04-23T12:29:09.927Z,23.40
2023-04-23T12:30:46.248Z,23.20
2023-04-23T12:32:23.093Z,23.07
2023-04-23T12:34:00.691Z,22.97
2023-04-23T12:35:40.831Z,22.87
2023-04-23T12:37:13.964Z,22.90
2023-04-23T12:38:47.057Z,22.80
2023-04-23T12:40:20.582Z,22.75
2023-04-23T12:41:56.681Z,22.79
2023-04-23T12:43:29.857Z,22.82
2023-04-23T12:45:11.237Z,22.91
2023-04-23T12:46:44.611Z,23.05
2023-04-23T12:48:19.841Z,22.97
2023-04-23T12:49:55.617Z,22.89
2023-04-23T12:51:28.964Z,22.82
2023-04-23T12:53:02.271Z,22.77
2023-04-23T12:54:37.793Z,22.59
2023-04-23T12:56:11.008Z,22.44
2023-04-23T12:57:44.108Z,22.44
2023-04-23T12:59:17.427Z,22.45
2023-04-23T13:00:50.741Z,22.43
2023-04-23T13:02:26.046Z,22.37
2023-04-23T13:04:00.988Z,22.48
2023-04-23T13:05:34.207Z,22.58
2023-04-23T13:07:09.631Z,22.71
2023-04-23T13:08:42.722Z,22.85
2023-04-23T13:10:16.244Z,22.90
2023-04-23T13:11:50.337Z,23.03
2023-04-23T13:13:23.627Z,23.07
2023-04-23T13:14:57.782Z,22.94
2023-04-23T13:16:31.498Z,22.83
2023-04-23T13:18:05.010Z,22.68
2023-04-23T13:19:40.609Z,22.54
2023-04-23T13:21:13.867Z,22.52
2023-04-23T13:22:47.024Z,22.61
2023-04-23T13:24:20.334Z,22.55
2023-04-23T13:25:53.825Z,22.65
2023-04-23T13:27:28.855Z,22.55
2023-04-23T13:29:02.576Z,22.49
2023-04-23T13:30:36.336Z,22.48
2023-04-23T13:32:09.597Z,22.31
2023-04-23T13:33:44.186Z,22.08
2023-04-23T13:35:19.074Z,22.07
2023-04-23T13:36:52.704Z,22.11
2023-04-23T13:38:26.428Z,22.18
2023-04-23T13:39:59.540Z,22.13
2023-04-23T13:41:32.660Z,22.16
2023-04-23T13:43:06.428Z,22.12
2023-04-23T13:44:39.528Z,22.08
2023-04-23T13:46:14.329Z,22.04
2023-04-23T13:47:48.115Z,21.97
2023-04-23T13:49:20.846Z,21.86
2023-04-23T13:50:55.652Z,21.88
2023-04-23T13:52:28.807Z,21.91
2023-04-23T13:54:02.140Z,21.94
2023-04-23T13:55:35.729Z,21.96
2023-04-23T13:57:09.217Z,21.98
2023-04-23T13:58:45.345Z,21.90
2023-04-23T14:00:19.142Z,21.88
2023-04-23T14:01:52.574Z,21.89
2023-04-23T14:03:25.885Z,21.93
2023-04-23T14:04:58.705Z,21.96
2023-04-23T14:06:33.234Z,22.05
2023-04-23T14:08:07.205Z,22.07
2023-04-23T14:09:41.202Z,22.01
2023-04-23T14:11:14.584Z,21.95
2023-04-23T14:12:47.887Z,21.98
2023-04-23T14:14:21.543Z,22.03
2023-04-23T14:15:54.761Z,22.03
2023-04-23T14:17:27.999Z,22.09
2023-04-23T14:19:01.142Z,22.18
2023-04-23T14:20:34.661Z,22.40
2023-04-23T14:22:09.366Z,22.74
2023-04-23T14:23:51.634Z,23.07
2023-04-23T14:25:32.294Z,23.15
2023-04-23T14:27:06.105Z,23.09
2023-04-23T14:28:42.159Z,23.10
2023-04-23T14:30:18.084Z,23.06
2023-04-23T14:31:51.674Z,22.92
2023-04-23T14:33:25.473Z,22.69
2023-04-23T14:34:58.698Z,22.80
2023-04-23T14:36:31.866Z,22.85
2023-04-23T14:38:06.452Z,22.94
2023-04-23T14:39:42.738Z,23.05
2023-04-23T14:41:16.333Z,23.10
2023-04-23T14:42:50.050Z,23.16
2023-04-23T14:44:26.412Z,23.09
2023-04-23T14:46:00.019Z,23.08
2023-04-23T14:47:33.229Z,23.03
2023-04-23T14:49:05.390Z,23.00
2023-04-23T14:50:38.639Z,22.77
2023-04-23T14:52:12.365Z,22.75
2023-04-23T14:53:46.943Z,22.82
2023-04-23T14:55:20.093Z,22.61
2023-04-23T14:56:53.417Z,22.53
2023-04-23T14:58:27.232Z,22.47
2023-04-23T15:00:00.773Z,22.35
2023-04-23T15:01:33.982Z,22.43
2023-04-23T15:03:10.651Z,22.50
2023-04-23T15:04:44.791Z,22.51
2023-04-23T15:06:18.001Z,22.52
2023-04-23T15:07:53.297Z,22.52
2023-04-23T15:09:27.935Z,22.54
2023-04-23T15:11:01.463Z,22.63
2023-04-23T15:12:50.703Z,22.68
2023-04-23T15:14:27.401Z,22.69
2023-04-23T15:16:06.022Z,22.67
2023-04-23T15:17:39.636Z,22.57
2023-04-23T15:19:12.828Z,22.55
2023-04-23T15:20:46.137Z,22.58
2023-04-23T15:22:19.646Z,22.50
2023-04-23T15:23:56.383Z,22.55
2023-04-23T15:25:33.244Z,22.61
2023-04-23T15:27:08.394Z,22.55
2023-04-23T15:28:41.983Z,22.58
2023-04-23T15:30:15.500Z,22.60
2023-04-23T15:31:48.656Z,22.41
2023-04-23T15:33:22.122Z,22.23
2023-04-23T15:34:55.938Z,22.07
2023-04-23T15:36:29.194Z,22.00
2023-04-23T15:38:02.308Z,22.00
2023-04-23T15:39:35.540Z,22.00
2023-04-23T15:41:10.485Z,21.89
2023-04-23T15:42:44.454Z,21.78
2023-04-23T15:44:18.964Z,21.71
2023-04-23T15:45:54.058Z,21.69
2023-04-23T15:47:27.432Z,21.76
2023-04-23T15:49:01.080Z,21.72
2023-04-23T15:50:34.266Z,21.57
2023-04-23T15:52:07.749Z,21.40
2023-04-23T15:53:41.127Z,21.34
2023-04-23T15:55:14.406Z,21.42
2023-04-23T15:56:48.953Z,21.54
2023-04-23T15:58:21.806Z,21.58
2023-04-23T15:59:55.855Z,21.42
2023-04-23T16:01:29.334Z,21.18
2023-04-23T16:03:04.637Z,21.06
2023-04-23T16:04:38.782Z,20.87
2023-04-23T16:06:12.619Z,20.81
2023-04-23T16:07:45.890Z,20.66
2023-04-23T16:09:19.096Z,20.65
2023-04-23T16:10:52.480Z,20.60
2023-04-23T16:12:27.244Z,20.50
2023-04-23T16:14:00.412Z,20.34
2023-04-23T16:15:33.716Z,20.31
2023-04-23T16:17:07.055Z,20.23
2023-04-23T16:18:40.824Z,20.25
2023-04-23T16:20:14.407Z,20.20
2023-04-23T16:21:47.622Z,20.10
2023-04-23T16:23:20.946Z,20.09
2023-04-23T16:24:55.026Z,20.07
2023-04-23T16:26:29.190Z,19.95
2023-04-23T16:28:04.829Z,19.95
2023-04-23T16:29:38.432Z,19.92
2023-04-23T16:31:10.789Z,19.91
2023-04-23T16:32:44.050Z,19.91
2023-04-23T16:34:17.503Z,19.89
2023-04-23T16:35:50.765Z,19.86
2023-04-23T16:37:24.000Z,19.82
2023-04-23T16:38:57.161Z,19.75
2023-04-23T16:40:30.652Z,19.61
2023-04-23T16:42:03.822Z,19.61
2023-04-23T16:43:38.847Z,19.47
2023-04-23T16:45:12.715Z,19.35
2023-04-23T16:46:46.018Z,19.23
2023-04-23T16:48:20.039Z,19.16
2023-04-23T16:49:54.126Z,19.00
2023-04-23T16:51:28.459Z,18.89
2023-04-23T16:53:01.709Z,18.79
2023-04-23T16:54:36.862Z,18.71
2023-04-23T16:56:10.674Z,18.66
2023-04-23T16:57:43.890Z,18.59
2023-04-23T16:59:18.744Z,18.50
2023-04-23T17:00:51.218Z,18.45
2023-04-23T17:02:24.722Z,18.36
2023-04-23T17:03:58.262Z,18.24
2023-04-23T17:05:34.515Z,18.23
2023-04-23T17:07:07.910Z,18.18
2023-04-23T17:08:41.497Z,18.11
2023-04-23T17:10:15.565Z,18.05
2023-04-23T17:11:48.699Z,17.98
2023-04-23T17:13:22.135Z,17.89
2023-04-23T17:14:56.909Z,17.80
2023-04-23T17:16:30.089Z,17.73
2023-04-23T17:18:03.908Z,17.68
2023-04-23T17:19:37.734Z,17.67
2023-04-23T17:21:11.442Z,17.63
2023-04-23T17:22:44.633Z,17.57
2023-04-23T17:24:17.816Z,17.48
2023-04-23T17:25:51.250Z,17.42
2023-04-23T17:27:24.629Z,17.43
2023-04-23T17:28:57.878Z,17.41
2023-04-23T17:30:32.497Z,17.40
2023-04-23T17:32:06.176Z,17.37
2023-04-23T17:33:39.868Z,17.32
2023-04-23T17:35:13.340Z,17.24
2023-04-23T17:36:46.835Z,17.25
2023-04-23T17:38:21.110Z,17.18
2023-04-23T17:39:54.628Z,17.19
2023-04-23T17:41:28.082Z,17.19
2023-04-23T17:43:01.338Z,17.18
2023-04-23T17:44:35.338Z,17.13
2023-04-23T17:46:10.520Z,17.13
2023-04-23T17:47:43.771Z,17.10
2023-04-23T17:49:17.289Z,17.09
2023-04-23T17:50:50.863Z,17.03
2023-04-23T17:52:24.259Z,17.04
2023-04-23T17:53:57.554Z,17.01
2023-04-23T17:55:33.068Z,16.95
2023-04-23T17:57:09.967Z,16.88
2023-04-23T17:58:43.477Z,16.85
2023-04-23T18:00:18.040Z,16.76
2023-04-23T18:01:52.655Z,16.68
2023-04-23T18:03:31.741Z,16.66
2023-04-23T18:05:06.056Z,16.54
2023-04-23T18:06:39.224Z,16.43
2023-04-23T18:08:12.954Z,16.32
2023-04-23T18:09:46.598Z,16.24
2023-04-23T18:11:20.977Z,16.10
2023-04-23T18:12:54.668Z,16.07
2023-04-23T18:14:27.871Z,15.90
2023-04-23T18:16:01.398Z,15.82
2023-04-23T18:17:36.171Z,15.72
2023-04-23T18:19:09.880Z,15.64
2023-04-23T18:20:44.285Z,15.62
2023-04-23T18:22:18.068Z,15.60
2023-04-23T18:23:51.412Z,15.54
2023-04-23T18:25:25.418Z,15.52
2023-04-23T18:26:58.718Z,15.47
2023-04-23T18:28:33.062Z,15.41
2023-04-23T18:30:08.243Z,15.36
2023-04-23T18:31:41.452Z,15.28
2023-04-23T18:33:30.952Z,15.22
2023-04-23T18:35:04.608Z,15.17
2023-04-23T18:36:39.398Z,15.14
2023-04-23T18:38:25.510Z,15.11
2023-04-23T18:39:59.170Z,15.11
2023-04-23T18:41:32.753Z,15.09
2023-04-23T18:43:06.150Z,15.08
2023-04-23T18:44:39.521Z,15.03
2023-04-23T18:46:13.123Z,15.02
2023-04-23T18:47:52.480Z,14.98
2023-04-23T18:49:46.677Z,14.91
2023-04-23T18:51:27.886Z,14.88
2023-04-23T18:53:01.343Z,14.83
2023-04-23T18:54:34.507Z,14.74
2023-04-23T18:56:07.952Z,14.62
2023-04-23T18:57:41.085Z,14.51
2023-04-23T18:59:15.344Z,14.36
2023-04-23T19:00:48.584Z,14.24
2023-04-23T19:02:34.371Z,14.03
2023-04-23T19:04:08.898Z,13.92
2023-04-23T19:05:44.289Z,13.95
2023-04-23T19:07:17.584Z,13.89
2023-04-23T19:08:51.186Z,13.85
2023-04-23T19:10:24.373Z,13.83
2023-04-23T19:11:57.755Z,13.73
2023-04-23T19:13:30.981Z,13.68
2023-04-23T19:15:04.409Z,13.60
2023-04-23T19:16:37.676Z,13.59
2023-04-23T19:18:11.012Z,13.59
2023-04-23T19:19:44.322Z,13.59
2023-04-23T19:21:19.667Z,13.61
2023-04-23T19:22:52.837Z,13.61
2023-04-23T19:24:26.588Z,13.60
2023-04-23T19:25:59.773Z,13.59
2023-04-23T19:27:33.322Z,13.60
2023-04-23T19:29:06.486Z,13.60
2023-04-23T19:30:40.128Z,13.59
2023-04-23T19:32:13.295Z,13.58
2023-04-23T19:33:47.733Z,13.51
2023-04-23T19:35:21.021Z,13.47
2023-04-23T19:36:55.876Z,13.40
2023-04-23T19:38:29.067Z,13.37
2023-04-23T19:40:02.500Z,13.27
2023-04-23T19:41:35.728Z,13.16
2023-04-23T19:43:10.840Z,13.05
2023-04-23T19:44:48.030Z,12.89
2023-04-23T19:46:21.596Z,12.81
2023-04-23T19:47:54.844Z,12.71
2023-04-23T19:49:28.096Z,12.64
2023-04-23T19:51:01.241Z,12.61
2023-04-23T19:52:36.288Z,12.66
2023-04-23T19:54:09.461Z,12.61
2023-04-23T19:55:42.688Z,12.61
2023-04-23T19:57:15.960Z,12.63
2023-04-23T19:58:50.728Z,12.57
2023-04-23T20:00:24.985Z,12.44
2023-04-23T20:01:58.126Z,12.37
2023-04-23T20:03:34.667Z,12.30
2023-04-23T20:05:10.367Z,12.23
2023-04-23T20:06:43.633Z,12.25
2023-04-23T20:08:26.361Z,12.26
2023-04-23T20:09:59.616Z,12.29
2023-04-23T20:11:33.134Z,12.29
2023-04-23T20:13:06.436Z,12.27
2023-04-23T20:14:39.883Z,12.22
2023-04-23T20:16:13.161Z,12.09
2023-04-23T20:17:46.737Z,12.07
2023-04-23T20:19:19.948Z,12.03
2023-04-23T20:20:53.348Z,11.90
2023-04-23T20:22:26.717Z,11.78
2023-04-23T20:24:01.494Z,11.62
2023-04-23T20:25:36.382Z,11.63
2023-04-23T20:27:09.790Z,11.61
2023-04-23T20:28:42.971Z,11.63
2023-04-23T20:30:16.682Z,11.64